createdAt,value
2023-12-22T00:00:02.504Z,98906.31
2023-12-22T00:02:30.364Z,98903.47
2023-12-22T00:04:58.228Z,98898.09
2023-12-22T00:07:26.117Z,98911.16
2023-12-22T00:09:53.960Z,98922.44
2023-12-22T00:12:23.159Z,98922.56
2023-12-22T00:14:51.193Z,98912.13
2023-12-22T00:17:19.019Z,98918.91
2023-12-22T00:19:46.969Z,98914.56
2023-12-22T00:22:14.997Z,98909.56
2023-12-22T00:24:42.791Z,98913.03
2023-12-22T00:27:10.676Z,98920.34
2023-12-22T00:29:39.889Z,98914.59
2023-12-22T00:32:10.764Z,98911.09
2023-12-22T00:34:38.763Z,98913.75
2023-12-22T00:37:06.642Z,98918.09
2023-12-22T00:39:34.594Z,98917.19
2023-12-22T00:42:02.503Z,98918.81
2023-12-22T00:44:30.713Z,98908.28
2023-12-22T00:46:59.946Z,98908.88
2023-12-22T00:49:27.858Z,98913.03
2023-12-22T00:51:55.698Z,98919.06
2023-12-22T00:54:23.539Z,98927.78
2023-12-22T00:56:51.735Z,98932.16
2023-12-22T00:59:20.235Z,98950.59
2023-12-22T01:01:48.263Z,98946.31
2023-12-22T01:04:17.527Z,98954.25
2023-12-22T01:06:45.476Z,98948.97
2023-12-22T01:09:13.428Z,98953.41
2023-12-22T01:11:41.222Z,99014.72
2023-12-22T01:14:09.100Z,98977.53
2023-12-22T01:16:37.014Z,98963.53
2023-12-22T01:19:04.942Z,98974.66
2023-12-22T01:21:34.193Z,98971.25
2023-12-22T01:24:02.083Z,98973.00
2023-12-22T01:26:29.979Z,98980.34
2023-12-22T01:28:57.892Z,98958.22
2023-12-22T01:31:25.869Z,98949.38
2023-12-22T01:33:53.767Z,98944.22
2023-12-22T01:36:21.594Z,98946.75
2023-12-22T01:38:50.790Z,98931.34
2023-12-22T01:41:18.632Z,98950.31
2023-12-22T01:43:46.467Z,98942.38
2023-12-22T01:46:14.335Z,98950.03
2023-12-22T01:48:42.268Z,98963.13
2023-12-22T01:51:10.121Z,98972.84
2023-12-22T01:53:39.972Z,98963.63
2023-12-22T01:56:09.684Z,98973.16
2023-12-22T01:58:37.542Z,98969.75
2023-12-22T02:01:05.637Z,98977.44
2023-12-22T02:03:33.558Z,98965.94
2023-12-22T02:06:01.597Z,98969.72
2023-12-22T02:08:29.439Z,98974.16
2023-12-22T02:10:57.283Z,98965.34
2023-12-22T02:13:26.560Z,98954.28
2023-12-22T02:15:58.051Z,98939.00
2023-12-22T02:18:28.268Z,98947.72
2023-12-22T02:20:56.085Z,98943.66
2023-12-22T02:23:25.269Z,98942.56
2023-12-22T02:25:53.857Z,98965.06
2023-12-22T02:28:21.817Z,98974.34
2023-12-22T02:30:52.239Z,98980.44
2023-12-22T02:33:20.095Z,98977.25
2023-12-22T02:35:47.939Z,98989.69
2023-12-22T02:38:15.774Z,99018.50
2023-12-22T02:40:44.997Z,99003.59
2023-12-22T02:43:11.929Z,99006.47
2023-12-22T02:45:39.763Z,99014.69
2023-12-22T02:48:08.305Z,99006.03
2023-12-22T02:50:36.342Z,99007.16
2023-12-22T02:53:04.368Z,99003.84
2023-12-22T02:55:32.245Z,98995.06
2023-12-22T02:58:01.424Z,98994.91
2023-12-22T03:00:29.261Z,98972.28
2023-12-22T03:02:57.117Z,98970.47
2023-12-22T03:05:24.976Z,98958.53
2023-12-22T03:07:53.200Z,98955.31
2023-12-22T03:10:21.160Z,98961.53
2023-12-22T03:12:49.004Z,98964.97
2023-12-22T03:15:18.196Z,98962.31
2023-12-22T03:17:46.138Z,98958.97
2023-12-22T03:20:14.136Z,98950.97
2023-12-22T03:22:41.989Z,98954.41
2023-12-22T03:25:10.087Z,98956.91
2023-12-22T03:27:38.029Z,98959.50
2023-12-22T03:30:06.841Z,98946.41
2023-12-22T03:32:36.109Z,98936.31
2023-12-22T03:35:04.122Z,98948.38
2023-12-22T03:37:32.039Z,98939.59
2023-12-22T03:39:59.923Z,98940.22
2023-12-22T03:42:27.722Z,98928.88
2023-12-22T03:44:55.581Z,98931.63
2023-12-22T03:47:23.554Z,98924.78
2023-12-22T03:49:52.774Z,98935.00
2023-12-22T03:52:20.743Z,98927.13
2023-12-22T03:54:48.609Z,98938.47
2023-12-22T03:57:16.403Z,98944.81
2023-12-22T03:59:44.696Z,98936.56
2023-12-22T04:02:12.693Z,98948.56
2023-12-22T04:04:40.635Z,98945.97
2023-12-22T04:07:09.918Z,98944.41
2023-12-22T04:09:39.056Z,98939.22
2023-12-22T04:12:07.627Z,98951.66
2023-12-22T04:14:35.633Z,98952.47
2023-12-22T04:17:03.543Z,98934.97
2023-12-22T04:19:31.462Z,98939.22
2023-12-22T04:21:59.344Z,98942.72
2023-12-22T04:24:28.523Z,98944.41
2023-12-22T04:26:56.332Z,98948.03
2023-12-22T04:29:24.137Z,98961.13
2023-12-22T04:31:51.970Z,98955.41
2023-12-22T04:34:19.806Z,98953.47
2023-12-22T04:36:48.113Z,98956.66
2023-12-22T04:39:15.956Z,98949.63
2023-12-22T04:41:45.172Z,98951.50
2023-12-22T04:44:12.970Z,98970.47
2023-12-22T04:46:40.814Z,98986.09
2023-12-22T04:49:08.903Z,98988.59
2023-12-22T04:51:36.825Z,98996.44
2023-12-22T04:54:04.835Z,99000.84
2023-12-22T04:56:33.378Z,99005.44
2023-12-22T04:59:02.631Z,99002.66
2023-12-22T05:01:30.560Z,98990.03
2023-12-22T05:03:58.459Z,98988.94
2023-12-22T05:06:26.285Z,98996.22
2023-12-22T05:08:54.088Z,98993.81
2023-12-22T05:11:22.026Z,98987.69
2023-12-22T05:13:49.966Z,98990.38
2023-12-22T05:16:19.334Z,98988.78
2023-12-22T05:18:47.177Z,98988.00
2023-12-22T05:21:16.102Z,98993.94
2023-12-22T05:23:44.147Z,99039.28
2023-12-22T05:26:11.967Z,99036.94
2023-12-22T05:28:39.885Z,99044.44
2023-12-22T05:31:07.708Z,99057.22
2023-12-22T05:33:36.876Z,99043.16
2023-12-22T05:36:05.194Z,99052.72
2023-12-22T05:38:33.019Z,99062.00
2023-12-22T05:41:00.899Z,99079.38
2023-12-22T05:43:28.757Z,99077.63
2023-12-22T05:45:56.549Z,99058.78
2023-12-22T05:48:24.442Z,99066.41
2023-12-22T05:50:53.642Z,99046.38
2023-12-22T05:53:21.443Z,99052.34
2023-12-22T05:55:49.931Z,99070.69
2023-12-22T05:58:17.782Z,99079.41
2023-12-22T06:00:45.611Z,99081.97
2023-12-22T06:03:13.587Z,99092.38
2023-12-22T06:05:41.540Z,99087.38
2023-12-22T06:08:11.428Z,99100.44
2023-12-22T06:10:39.358Z,99098.88
2023-12-22T06:13:07.598Z,99113.63
2023-12-22T06:15:35.463Z,99134.44
2023-12-22T06:18:03.374Z,99139.59
2023-12-22T06:20:31.230Z,99145.75
2023-12-22T06:22:59.148Z,99135.22
2023-12-22T06:25:28.557Z,99126.19
2023-12-22T06:27:56.365Z,99126.25
2023-12-22T06:30:25.540Z,99133.28
2023-12-22T06:32:53.597Z,99143.72
2023-12-22T06:35:24.778Z,99143.41
2023-12-22T06:37:53.064Z,99157.47
2023-12-22T06:40:21.378Z,99142.19
2023-12-22T06:42:50.572Z,99139.00
2023-12-22T06:45:18.375Z,99142.56
2023-12-22T06:47:46.289Z,99143.16
2023-12-22T06:50:14.404Z,99150.66
2023-12-22T06:52:42.388Z,99156.69
2023-12-22T06:55:10.904Z,99148.56
2023-12-22T06:57:40.315Z,99145.22
2023-12-22T07:00:11.486Z,99140.22
2023-12-22T07:02:39.498Z,99135.03
2023-12-22T07:05:32.467Z,99143.63
2023-12-22T07:08:00.305Z,99150.53
2023-12-22T07:10:28.136Z,99169.97
2023-12-22T07:12:55.969Z,99219.75
2023-12-22T07:15:25.126Z,99214.91
2023-12-22T07:17:53.568Z,99203.44
2023-12-22T07:20:22.075Z,99204.84
2023-12-22T07:22:49.982Z,99205.56
2023-12-22T07:25:20.215Z,99212.50
2023-12-22T07:27:48.909Z,99207.22
2023-12-22T07:30:18.142Z,99205.47
2023-12-22T07:32:49.850Z,99227.00
2023-12-22T07:35:18.955Z,99231.19
2023-12-22T07:37:47.013Z,99235.41
2023-12-22T07:40:17.122Z,99242.22
2023-12-22T07:42:46.002Z,99238.03
2023-12-22T07:45:13.823Z,99247.97
2023-12-22T07:47:41.703Z,99249.94
2023-12-22T07:50:11.408Z,99240.38
2023-12-22T07:52:41.127Z,99250.84
2023-12-22T07:55:11.641Z,99250.09
2023-12-22T07:57:39.706Z,99252.88
2023-12-22T08:00:10.232Z,99242.44
2023-12-22T08:02:38.171Z,99277.97
2023-12-22T08:05:06.340Z,99319.56
2023-12-22T08:07:35.575Z,99304.13
2023-12-22T08:10:04.048Z,99290.34
2023-12-22T08:12:33.308Z,99282.47
2023-12-22T08:15:01.319Z,99292.00
2023-12-22T08:17:29.504Z,99297.94
2023-12-22T08:22:28.412Z,99300.41
2023-12-22T08:25:00.773Z,99310.81
2023-12-22T08:27:28.678Z,99381.84
2023-12-22T08:29:56.499Z,99341.19
2023-12-22T08:32:24.373Z,99329.84
2023-12-22T08:34:52.282Z,99318.66
2023-12-22T08:37:20.324Z,99314.28
2023-12-22T08:39:48.314Z,99335.25
2023-12-22T08:42:17.540Z,99350.88
2023-12-22T08:44:45.433Z,99350.75
2023-12-22T08:47:13.285Z,99345.47
2023-12-22T08:49:41.149Z,99349.00
2023-12-22T08:52:08.996Z,99350.69
2023-12-22T08:54:37.102Z,99347.16
2023-12-22T08:57:05.214Z,99369.63
2023-12-22T08:59:34.387Z,99370.28
2023-12-22T09:02:02.291Z,99364.03
2023-12-22T09:04:30.286Z,99365.84
2023-12-22T09:06:58.131Z,99359.78
2023-12-22T09:09:26.354Z,99355.47
2023-12-22T09:11:54.583Z,99355.31
2023-12-22T09:14:22.845Z,99369.91
2023-12-22T09:16:52.123Z,99358.53
2023-12-22T09:19:20.403Z,99361.22
2023-12-22T09:21:48.249Z,99371.56
2023-12-22T09:24:17.672Z,99375.00
2023-12-22T09:26:45.510Z,99384.69
2023-12-22T09:29:13.484Z,99383.94
2023-12-22T09:31:42.388Z,99377.69
2023-12-22T09:34:11.733Z,99378.56
2023-12-22T09:36:39.932Z,99372.38
2023-12-22T09:39:07.754Z,99381.91
2023-12-22T09:41:35.561Z,99376.72
2023-12-22T09:44:03.438Z,99374.88
2023-12-22T09:46:31.310Z,99372.19
2023-12-22T09:48:59.182Z,99368.59
2023-12-22T09:51:28.396Z,99372.63
2023-12-22T09:53:56.442Z,99371.03
2023-12-22T09:56:24.899Z,99364.91
2023-12-22T09:58:52.820Z,99363.94
2023-12-22T10:01:23.275Z,99367.34
2023-12-22T10:03:51.214Z,99360.22
2023-12-22T10:06:19.191Z,99361.91
2023-12-22T10:08:48.588Z,99359.13
2023-12-22T10:11:16.426Z,99371.31
2023-12-22T10:13:44.315Z,99376.81
2023-12-22T10:16:12.189Z,99377.97
2023-12-22T10:18:40.066Z,99363.47
2023-12-22T10:21:08.068Z,99374.84
2023-12-22T10:23:35.866Z,99391.22
2023-12-22T10:26:05.429Z,99394.44
2023-12-22T10:28:33.318Z,99411.66
2023-12-22T10:31:07.238Z,99415.13
2023-12-22T10:33:35.216Z,99398.78
2023-12-22T10:36:03.120Z,99409.09
2023-12-22T10:38:34.515Z,99413.22
2023-12-22T10:41:04.416Z,99401.84
2023-12-22T10:43:32.464Z,99413.22
2023-12-22T10:46:00.301Z,99427.25
2023-12-22T10:48:28.187Z,99415.25
2023-12-22T10:50:56.153Z,99422.13
2023-12-22T10:53:25.114Z,99420.50
2023-12-22T10:55:53.450Z,99416.81
2023-12-22T10:58:23.010Z,99402.69
2023-12-22T11:00:50.902Z,99402.50
2023-12-22T11:03:19.790Z,99382.97
2023-12-22T11:05:48.942Z,99389.22
2023-12-22T11:08:16.851Z,99386.69
2023-12-22T11:10:45.189Z,99382.41
2023-12-22T11:13:13.490Z,99396.00
2023-12-22T11:15:42.757Z,99380.31
2023-12-22T11:18:11.303Z,99387.28
2023-12-22T11:20:39.201Z,99383.19
2023-12-22T11:23:07.038Z,99386.78
2023-12-22T11:25:34.947Z,99377.28
2023-12-22T11:28:02.984Z,99375.59
2023-12-22T11:30:30.805Z,99368.59
2023-12-22T11:33:00.112Z,99374.81
2023-12-22T11:35:32.595Z,99371.22
2023-12-22T11:38:02.420Z,99365.81
2023-12-22T11:40:29.323Z,99359.56
2023-12-22T11:42:57.230Z,99373.28
2023-12-22T11:45:25.417Z,99367.72
2023-12-22T11:47:54.081Z,99354.59
2023-12-22T11:50:32.859Z,99345.25
2023-12-22T11:53:22.351Z,99359.25
2023-12-22T11:56:03.952Z,99370.69
2023-12-22T11:58:41.993Z,99364.59
2023-12-22T12:01:10.824Z,99362.75
2023-12-22T12:03:40.473Z,99361.84
2023-12-22T12:06:18.678Z,99363.50
2023-12-22T12:08:46.569Z,99367.72
2023-12-22T12:11:14.869Z,99362.63
2023-12-22T12:13:46.030Z,99367.66
2023-12-22T12:16:13.909Z,99361.44
2023-12-22T12:18:42.018Z,99358.97
2023-12-22T12:21:10.501Z,99359.84
2023-12-22T12:23:39.875Z,99382.88
2023-12-22T12:26:08.485Z,99365.97
2023-12-22T12:28:37.785Z,99357.41
2023-12-22T12:31:06.714Z,99355.81
2023-12-22T12:33:34.678Z,99353.22
2023-12-22T12:36:05.597Z,99354.16
2023-12-22T12:38:45.439Z,99365.44
2023-12-22T12:41:13.907Z,99347.44
2023-12-22T12:43:43.656Z,99345.66
2023-12-22T12:46:11.761Z,99338.75
2023-12-22T12:48:40.084Z,99346.53
2023-12-22T12:51:08.297Z,99342.13
2023-12-22T12:53:36.221Z,99340.63
2023-12-22T12:56:06.649Z,99358.69
2023-12-22T12:58:34.635Z,99354.16
2023-12-22T13:01:09.868Z,99337.66
2023-12-22T13:03:55.630Z,99348.25
2023-12-22T13:06:23.576Z,99355.38
2023-12-22T13:08:51.932Z,99358.84
2023-12-22T13:11:24.415Z,99354.25
2023-12-22T13:13:52.705Z,99362.13
2023-12-22T13:16:20.922Z,99361.19
2023-12-22T13:18:48.956Z,99356.81
2023-12-22T13:21:16.795Z,99359.69
2023-12-22T13:23:44.629Z,99349.19
2023-12-22T13:26:20.345Z,99346.84
2023-12-22T13:28:49.649Z,99339.16
2023-12-22T13:31:19.383Z,99340.94
2023-12-22T13:33:47.391Z,99343.31
2023-12-22T13:36:15.325Z,99356.22
2023-12-22T13:38:47.965Z,99363.16
2023-12-22T13:41:15.765Z,99394.31
2023-12-22T13:43:45.484Z,99407.41
2023-12-22T13:46:15.411Z,99390.03
2023-12-22T13:48:43.380Z,99389.09
2023-12-22T13:51:11.224Z,99382.88
2023-12-22T13:53:48.994Z,99385.47
2023-12-22T13:56:16.884Z,99373.22
2023-12-22T13:58:48.040Z,99380.94
2023-12-22T14:01:17.593Z,99374.72
2023-12-22T14:03:45.686Z,99383.34
2023-12-22T14:06:13.904Z,99379.16
2023-12-22T14:08:42.740Z,99377.69
2023-12-22T14:11:10.706Z,99362.81
2023-12-22T14:13:41.492Z,99373.16
2023-12-22T14:16:09.351Z,99368.00
2023-12-22T14:18:38.638Z,99370.50
2023-12-22T14:21:06.641Z,99376.50
2023-12-22T14:23:34.484Z,99376.50
2023-12-22T14:26:02.719Z,99383.34
2023-12-22T14:28:30.758Z,99387.75
2023-12-22T14:30:58.717Z,99389.41
2023-12-22T14:33:27.079Z,99387.53
2023-12-22T14:35:56.325Z,99384.03
2023-12-22T14:38:24.320Z,99377.78
2023-12-22T14:40:52.296Z,99371.75
2023-12-22T14:43:20.105Z,99379.53
2023-12-22T14:45:47.905Z,99383.91
2023-12-22T14:48:15.921Z,99398.66
2023-12-22T14:50:43.787Z,99387.22
2023-12-22T14:53:13.939Z,99389.72
2023-12-22T14:55:42.085Z,99387.06
2023-12-22T14:58:11.328Z,99382.59
2023-12-22T15:00:39.160Z,99386.78
2023-12-22T15:03:07.649Z,99391.22
2023-12-22T15:05:37.491Z,99379.97
2023-12-22T15:08:08.406Z,99390.38
2023-12-22T15:10:38.080Z,99394.63
2023-12-22T15:13:06.062Z,99401.53
2023-12-22T15:15:33.874Z,99397.19
2023-12-22T15:18:01.731Z,99401.50
2023-12-22T15:20:30.143Z,99406.72
2023-12-22T15:22:58.030Z,99398.84
2023-12-22T15:25:26.042Z,99408.31
2023-12-22T15:27:55.284Z,99404.28
2023-12-22T15:30:23.116Z,99403.78
2023-12-22T15:32:51.944Z,99396.06
2023-12-22T15:35:20.648Z,99405.81
2023-12-22T15:37:48.619Z,99403.31
2023-12-22T15:40:16.574Z,99392.06
2023-12-22T15:42:44.385Z,99397.28
2023-12-22T15:45:13.856Z,99388.44
2023-12-22T15:47:42.424Z,99393.53
2023-12-22T15:50:11.473Z,99386.53
2023-12-22T15:52:39.362Z,99403.00
2023-12-22T15:55:07.792Z,99411.56
2023-12-22T15:57:35.617Z,99401.09
2023-12-22T16:00:03.898Z,99397.59
2023-12-22T16:02:34.809Z,99389.78
2023-12-22T16:05:02.683Z,99403.47
2023-12-22T16:07:31.895Z,99402.41
2023-12-22T16:10:01.315Z,99397.13
2023-12-22T16:12:29.144Z,99402.31
2023-12-22T16:14:57.017Z,99399.63
2023-12-22T16:17:24.830Z,99397.81
2023-12-22T16:19:54.108Z,99401.34
2023-12-22T16:22:21.948Z,99408.38
2023-12-22T16:24:49.794Z,99412.75
2023-12-22T16:27:18.364Z,99415.28
2023-12-22T16:29:47.944Z,99418.59
2023-12-22T16:32:16.930Z,99414.22
2023-12-22T16:34:45.508Z,99428.50
2023-12-22T16:37:15.198Z,99422.88
2023-12-22T16:39:50.475Z,99421.31
2023-12-22T16:42:19.027Z,99427.59
2023-12-22T16:44:46.907Z,99430.19
2023-12-22T16:47:14.739Z,99440.53
2023-12-22T16:49:43.891Z,99451.03
2023-12-22T16:52:11.811Z,99440.69
2023-12-22T16:54:41.621Z,99425.22
2023-12-22T16:57:09.904Z,99433.09
2023-12-22T16:59:37.726Z,99442.56
2023-12-22T17:02:20.578Z,99434.78
2023-12-22T17:04:54.371Z,99418.31
2023-12-22T17:07:22.528Z,99414.97
2023-12-22T17:09:51.922Z,99434.13
2023-12-22T17:12:19.944Z,99434.69
2023-12-22T17:14:47.810Z,99432.84
2023-12-22T17:17:16.118Z,99441.66
2023-12-22T17:19:44.036Z,99440.94
2023-12-22T17:22:11.873Z,99441.91
2023-12-22T17:24:44.083Z,99436.69
2023-12-22T17:27:13.927Z,99427.03
2023-12-22T17:29:42.266Z,99422.78
2023-12-22T17:32:11.512Z,99396.59
2023-12-22T17:34:39.606Z,99397.28
2023-12-22T17:37:07.441Z,99400.72
2023-12-22T17:39:35.723Z,99418.16
2023-12-22T17:42:03.790Z,99424.28
2023-12-22T17:44:32.938Z,99419.88
2023-12-22T17:47:04.357Z,99412.84
2023-12-22T17:49:32.996Z,99438.09
2023-12-22T17:52:01.117Z,99448.44
2023-12-22T17:54:29.030Z,99452.00
2023-12-22T17:56:56.831Z,99459.13
2023-12-22T17:59:24.734Z,99457.44
2023-12-22T18:01:55.158Z,99467.13
2023-12-22T18:04:23.157Z,99462.81
2023-12-22T18:06:50.943Z,99457.59
2023-12-22T18:09:18.736Z,99450.56
2023-12-22T18:11:47.666Z,99446.16
2023-12-22T18:14:15.603Z,99438.44
2023-12-22T18:16:43.919Z,99444.66
2023-12-22T18:19:13.330Z,99443.66
2023-12-22T18:21:41.206Z,99446.25
2023-12-22T18:24:09.189Z,99444.47
2023-12-22T18:26:37.190Z,99454.09
2023-12-22T18:29:05.088Z,99447.97
2023-12-22T18:31:32.982Z,99466.41
2023-12-22T18:34:00.836Z,99461.44
2023-12-22T18:36:30.037Z,99455.41
2023-12-22T18:38:59.758Z,99460.81
2023-12-22T18:41:27.647Z,99469.72
2023-12-22T18:43:55.541Z,99473.34
2023-12-22T18:46:23.335Z,99473.44
2023-12-22T18:48:51.149Z,99471.84
2023-12-22T18:51:24.179Z,99476.94
2023-12-22T18:53:53.377Z,99480.25
2023-12-22T18:56:22.383Z,99474.28
2023-12-22T18:58:50.687Z,99474.28
2023-12-22T19:01:26.463Z,99481.16
2023-12-22T19:04:03.553Z,99470.75
2023-12-22T19:06:31.483Z,99472.59
2023-12-22T19:09:00.673Z,99503.13
2023-12-22T19:11:28.496Z,99496.09
2023-12-22T19:13:57.186Z,99503.00
2023-12-22T19:16:25.060Z,99490.69
2023-12-22T19:18:52.899Z,99488.84
2023-12-22T19:21:20.717Z,99500.19
2023-12-22T19:23:48.537Z,99497.78
2023-12-22T19:26:18.385Z,99500.44
2023-12-22T19:28:46.218Z,99504.63
2023-12-22T19:31:14.141Z,99504.75
2023-12-22T19:33:42.117Z,99493.44
2023-12-22T19:36:11.474Z,99502.13
2023-12-22T19:38:39.279Z,99514.38
2023-12-22T19:41:07.114Z,99506.78
2023-12-22T19:43:36.621Z,99514.69
2023-12-22T19:46:04.589Z,99518.06
2023-12-22T19:48:32.426Z,99526.78
2023-12-22T19:51:00.305Z,99534.63
2023-12-22T19:53:28.155Z,99523.50
2023-12-22T19:55:55.986Z,99528.94
2023-12-22T19:58:23.810Z,99536.91
2023-12-22T20:00:53.023Z,99534.19
2023-12-22T20:03:23.146Z,99536.63
2023-12-22T20:05:51.074Z,99546.25
2023-12-22T20:08:19.104Z,99548.09
2023-12-22T20:10:47.291Z,99551.59
2023-12-22T20:13:16.363Z,99552.28
2023-12-22T20:15:44.416Z,99550.38
2023-12-22T20:18:13.884Z,99549.53
2023-12-22T20:20:42.017Z,99558.06
2023-12-22T20:23:09.892Z,99554.44
2023-12-22T20:25:37.869Z,99563.78
2023-12-22T20:28:06.252Z,99562.13
2023-12-22T20:30:34.255Z,99562.13
2023-12-22T20:33:02.158Z,99561.38
2023-12-22T20:35:31.385Z,99554.63
2023-12-22T20:37:59.284Z,99572.94
2023-12-22T20:40:27.194Z,99579.91
2023-12-22T20:42:55.002Z,99577.28
2023-12-22T20:45:22.874Z,99585.06
2023-12-22T20:47:51.003Z,99586.69
2023-12-22T20:50:19.043Z,99591.91
2023-12-22T20:52:51.717Z,99598.06
2023-12-22T20:55:19.906Z,99611.06
2023-12-22T20:57:49.552Z,99627.41
2023-12-22T21:00:18.033Z,99640.28
2023-12-22T21:02:45.856Z,99650.59
2023-12-22T21:05:13.982Z,99656.59
2023-12-22T21:07:42.032Z,99654.81
2023-12-22T21:10:12.775Z,99656.44
2023-12-22T21:12:40.992Z,99655.59
2023-12-22T21:15:10.713Z,99667.78
2023-12-22T21:17:38.848Z,99667.81
2023-12-22T21:20:07.664Z,99674.81
2023-12-22T21:22:35.537Z,99676.66
2023-12-22T21:25:03.431Z,99680.06
2023-12-22T21:27:32.597Z,99693.94
2023-12-22T21:30:00.515Z,99699.16
2023-12-22T21:32:29.133Z,99706.25
2023-12-22T21:34:57.095Z,99724.63
2023-12-22T21:37:26.208Z,99723.13
2023-12-22T21:39:54.505Z,99718.88
2023-12-22T21:42:22.304Z,99732.72
2023-12-22T21:44:51.937Z,99746.63
2023-12-22T21:47:19.873Z,99756.16
2023-12-22T21:49:47.840Z,99758.78
2023-12-22T21:52:16.723Z,99762.28
2023-12-22T21:54:45.821Z,99759.69
2023-12-22T21:57:13.660Z,99770.19
2023-12-22T21:59:43.331Z,99788.44
2023-12-22T22:02:12.661Z,99791.03
2023-12-22T22:04:41.500Z,99785.97
2023-12-22T22:07:09.377Z,99792.00
2023-12-22T22:09:37.279Z,99792.00
2023-12-22T22:12:05.557Z,99796.41
2023-12-22T22:14:33.414Z,99794.75
2023-12-22T22:17:01.312Z,99798.31
2023-12-22T22:19:30.524Z,99816.59
2023-12-22T22:21:58.372Z,99818.47
2023-12-22T22:24:26.350Z,99829.66
2023-12-22T22:26:54.169Z,99833.94
2023-12-22T22:29:22.021Z,99834.75
2023-12-22T22:31:49.908Z,99845.19
2023-12-22T22:34:17.741Z,99859.88
2023-12-22T22:36:46.982Z,99864.22
2023-12-22T22:39:15.002Z,99881.56
2023-12-22T22:41:43.370Z,99887.59
2023-12-22T22:44:11.275Z,99895.41
2023-12-22T22:46:39.189Z,99900.72
2023-12-22T22:49:07.198Z,99898.91
2023-12-22T22:51:35.096Z,99903.31
2023-12-22T22:54:05.687Z,99903.31
2023-12-22T22:56:33.924Z,99910.28
2023-12-22T22:59:01.802Z,99908.53
2023-12-22T23:01:29.668Z,99925.19
2023-12-22T23:04:01.185Z,99926.06
2023-12-22T23:06:29.898Z,99933.09
2023-12-22T23:09:00.736Z,99946.16
2023-12-22T23:11:29.932Z,99948.06
2023-12-22T23:13:57.822Z,99955.03
2023-12-22T23:16:25.702Z,99962.84
2023-12-22T23:18:54.127Z,99966.34
2023-12-22T23:21:22.183Z,99968.06
2023-12-22T23:23:50.016Z,99982.00
2023-12-22T23:26:17.912Z,99979.38
2023-12-22T23:28:47.412Z,99973.22
2023-12-22T23:31:15.407Z,99985.53
2023-12-22T23:33:43.258Z,99990.75
2023-12-22T23:36:18.609Z,99994.16
2023-12-22T23:38:52.926Z,100006.34
2023-12-22T23:41:21.024Z,100012.53
2023-12-22T23:43:50.274Z,100023.09
2023-12-22T23:46:18.173Z,100013.41
2023-12-22T23:48:46.162Z,100016.81
2023-12-22T23:51:14.789Z,100021.97
2023-12-22T23:53:42.646Z,100021.03
2023-12-22T23:56:11.015Z,100022.72
2023-12-22T23:58:38.966Z,100021.81
